الصفحة الرئيسية
METAR-TAF:

METAR-TAF

مطار :

كيرنز, أستراليا

دائرة عرض: 16-53S, خط طول: 145-45E, ارتفاع: 3 متر

مراقبة الطقس الحالي

تاريخ ووقت الإصدار 23 دقيقة قبل الساعة 00:00UTC
ريح 8 عقدة من الجنوب الشرقي, الاتجاه يتراوح بين الشرق و الجنوب/الجنوب الشرقي
درجة الحرارة 26°درجة مئوية
الرطوبة 51%
ضغط 1017 hPa
الرؤية 10 كم أو أكثر
غيوم قليلة على ارتفاع 3000 قدم

METAR: YBCS 180000Z 13008KT 080V150 9999 FEW030 26/15 Q1017

زمن: 10:23 (00:23 UTC)

توقعات

تاريخ ووقت الإصدار 1ساعة و 28 دقيقة قبل الساعة 22:55UTC
التوقعات صالحة من18 الساعة 00 UTC إلى 18 الساعة 24 UTC
ريح 5 عقدة من الجنوب الشرقي
الرؤية 10 كم أو أكثر
غيوم قليلة على ارتفاع 3000 قدم
من 18 الساعة 0100 UTC
ريح 12 عقدة من الشرق/الشمال الشرقي
الرؤية 10 كم أو أكثر
غيوم قليلة على ارتفاع 3000 قدم
من 18 الساعة 0800 UTC
ريح 6 عقدة من الجنوب
الرؤية 10 كم أو أكثر
غيوم قليلة على ارتفاع 2500 قدم

TAF: YBCS 172255Z 1800/1824 13005KT 9999 FEW030 FM180100 06012KT 9999 FEW030 FM180800 17006KT 9999 FEW025

أرصاد الطقس والتوقعات من أكثر من 4000 مطار (تقارير الطقس للمطار METAR والتنبؤ بالطقس بالمطارTAF).

المحطات المتاحة هي النقط الصفراء والحمراء على الخريطة.

حرك المؤشر فوق النقطة لمعرفة اسم المحطة.

ثم انقر لمعرفة أرصاد وتوقعات الطقس.

لتغيير الخارطة: اضغط على الأزرار الخضراء مع رمز الصليب الأسود للتكبير. على الزر الأخضر مع شرطة للتصغير، أو على الأسهم الخضراء للخرائط المجاورة.


METAR-TAF: